sensor_id;sensor_type;location;lat;lon;timestamp;P1;durP1;ratioP1;P2;durP2;ratioP2
27265;SDS011;14766;51.380;13.762;2023-12-29T00:02:17;2.28;;;1.10;;
27265;SDS011;14766;51.380;13.762;2023-12-29T00:04:44;1.92;;;1.33;;
27265;SDS011;14766;51.380;13.762;2023-12-29T00:07:12;2.90;;;1.30;;
27265;SDS011;14766;51.380;13.762;2023-12-29T00:09:42;2.08;;;1.48;;
27265;SDS011;14766;51.380;13.762;2023-12-29T00:12:11;2.03;;;1.60;;
27265;SDS011;14766;51.380;13.762;2023-12-29T00:14:39;1.88;;;1.50;;
27265;SDS011;14766;51.380;13.762;2023-12-29T00:17:07;2.80;;;1.42;;
27265;SDS011;14766;51.380;13.762;2023-12-29T00:19:34;3.13;;;1.45;;
27265;SDS011;14766;51.380;13.762;2023-12-29T00:22:03;1.80;;;1.40;;
27265;SDS011;14766;51.380;13.762;2023-12-29T00:24:30;4.05;;;2.00;;
27265;SDS011;14766;51.380;13.762;2023-12-29T00:26:58;3.33;;;1.92;;
27265;SDS011;14766;51.380;13.762;2023-12-29T00:29:26;2.38;;;1.63;;
27265;SDS011;14766;51.380;13.762;2023-12-29T00:31:58;4.50;;;1.90;;
27265;SDS011;14766;51.380;13.762;2023-12-29T00:34:27;3.17;;;1.73;;
27265;SDS011;14766;51.380;13.762;2023-12-29T00:36:54;2.25;;;1.60;;
27265;SDS011;14766;51.380;13.762;2023-12-29T00:39:21;1.77;;;1.55;;
27265;SDS011;14766;51.380;13.762;2023-12-29T00:41:56;2.20;;;1.40;;
27265;SDS011;14766;51.380;13.762;2023-12-29T00:44:23;4.57;;;1.55;;
27265;SDS011;14766;51.380;13.762;2023-12-29T00:46:50;1.65;;;1.42;;
27265;SDS011;14766;51.380;13.762;2023-12-29T00:49:17;2.30;;;1.35;;
27265;SDS011;14766;51.380;13.762;2023-12-29T00:51:47;1.85;;;1.30;;
27265;SDS011;14766;51.380;13.762;2023-12-29T00:54:14;1.67;;;1.17;;
27265;SDS011;14766;51.380;13.762;2023-12-29T00:56:42;4.30;;;1.27;;
27265;SDS011;14766;51.380;13.762;2023-12-29T00:59:18;1.48;;;1.20;;
27265;SDS011;14766;51.380;13.762;2023-12-29T01:01:47;1.33;;;1.10;;
27265;SDS011;14766;51.380;13.762;2023-12-29T01:04:15;2.53;;;1.10;;
27265;SDS011;14766;51.380;13.762;2023-12-29T01:06:43;2.72;;;0.90;;
27265;SDS011;14766;51.380;13.762;2023-12-29T01:09:11;2.15;;;1.10;;
27265;SDS011;14766;51.380;13.762;2023-12-29T01:11:38;2.30;;;1.00;;
27265;SDS011;14766;51.380;13.762;2023-12-29T01:14:06;1.77;;;1.10;;
27265;SDS011;14766;51.380;13.762;2023-12-29T01:16:33;1.45;;;1.10;;
27265;SDS011;14766;51.380;13.762;2023-12-29T01:19:00;1.35;;;1.10;;
27265;SDS011;14766;51.380;13.762;2023-12-29T01:21:28;1.40;;;1.10;;
27265;SDS011;14766;51.380;13.762;2023-12-29T01:23:55;2.35;;;1.40;;
27265;SDS011;14766;51.380;13.762;2023-12-29T01:26:22;2.70;;;1.45;;
27265;SDS011;14766;51.380;13.762;2023-12-29T01:28:49;2.20;;;1.50;;
27265;SDS011;14766;51.380;13.762;2023-12-29T01:31:16;1.38;;;1.27;;
27265;SDS011;14766;51.380;13.762;2023-12-29T01:33:44;2.53;;;1.30;;
27265;SDS011;14766;51.380;13.762;2023-12-29T01:36:18;2.10;;;1.20;;
27265;SDS011;14766;51.380;13.762;2023-12-29T01:38:51;2.28;;;1.30;;
27265;SDS011;14766;51.380;13.762;2023-12-29T01:41:22;1.80;;;1.20;;
27265;SDS011;14766;51.380;13.762;2023-12-29T01:44:32;3.35;;;1.80;;
27265;SDS011;14766;51.380;13.762;2023-12-29T01:46:51;2.75;;;1.40;;
27265;SDS011;14766;51.380;13.762;2023-12-29T01:49:20;2.28;;;1.30;;
27265;SDS011;14766;51.380;13.762;2023-12-29T01:51:52;2.00;;;1.50;;
27265;SDS011;14766;51.380;13.762;2023-12-29T01:54:22;2.35;;;1.33;;
27265;SDS011;14766;51.380;13.762;2023-12-29T01:56:52;2.20;;;1.35;;
27265;SDS011;14766;51.380;13.762;2023-12-29T01:59:24;3.00;;;1.60;;
27265;SDS011;14766;51.380;13.762;2023-12-29T02:01:53;2.90;;;1.80;;
27265;SDS011;14766;51.380;13.762;2023-12-29T02:04:26;3.38;;;1.65;;
27265;SDS011;14766;51.380;13.762;2023-12-29T02:06:54;2.70;;;1.50;;
27265;SDS011;14766;51.380;13.762;2023-12-29T02:09:24;1.55;;;1.30;;
27265;SDS011;14766;51.380;13.762;2023-12-29T02:11:51;2.30;;;1.60;;
27265;SDS011;14766;51.380;13.762;2023-12-29T02:14:18;2.17;;;1.40;;
27265;SDS011;14766;51.380;13.762;2023-12-29T02:19:41;2.33;;;1.48;;
27265;SDS011;14766;51.380;13.762;2023-12-29T02:22:11;2.20;;;1.60;;
27265;SDS011;14766;51.380;13.762;2023-12-29T02:24:39;2.58;;;1.50;;
27265;SDS011;14766;51.380;13.762;2023-12-29T02:32:42;2.35;;;1.30;;
27265;SDS011;14766;51.380;13.762;2023-12-29T02:35:16;1.83;;;1.08;;
27265;SDS011;14766;51.380;13.762;2023-12-29T02:37:46;1.45;;;1.20;;
27265;SDS011;14766;51.380;13.762;2023-12-29T02:40:16;2.13;;;1.10;;
27265;SDS011;14766;51.380;13.762;2023-12-29T02:42:47;1.00;;;0.90;;
27265;SDS011;14766;51.380;13.762;2023-12-29T02:45:16;1.85;;;1.20;;
27265;SDS011;14766;51.380;13.762;2023-12-29T02:47:43;2.25;;;1.33;;
27265;SDS011;14766;51.380;13.762;2023-12-29T02:50:11;1.98;;;1.15;;
27265;SDS011;14766;51.380;13.762;2023-12-29T02:52:38;1.75;;;1.00;;
27265;SDS011;14766;51.380;13.762;2023-12-29T02:55:06;1.40;;;1.00;;
27265;SDS011;14766;51.380;13.762;2023-12-29T02:57:33;1.23;;;0.82;;
27265;SDS011;14766;51.380;13.762;2023-12-29T03:00:01;1.10;;;1.00;;
27265;SDS011;14766;51.380;13.762;2023-12-29T03:02:28;1.50;;;0.90;;
27265;SDS011;14766;51.380;13.762;2023-12-29T03:04:55;0.70;;;0.60;;
27265;SDS011;14766;51.380;13.762;2023-12-29T03:07:22;1.08;;;0.60;;
27265;SDS011;14766;51.380;13.762;2023-12-29T03:09:49;1.02;;;0.60;;
27265;SDS011;14766;51.380;13.762;2023-12-29T03:12:17;0.93;;;0.70;;
27265;SDS011;14766;51.380;13.762;2023-12-29T03:14:44;1.02;;;0.88;;
27265;SDS011;14766;51.380;13.762;2023-12-29T03:17:13;0.77;;;0.60;;
27265;SDS011;14766;51.380;13.762;2023-12-29T03:19:40;2.38;;;1.00;;
27265;SDS011;14766;51.380;13.762;2023-12-29T03:22:09;0.68;;;0.60;;
27265;SDS011;14766;51.380;13.762;2023-12-29T03:24:36;0.95;;;0.85;;
27265;SDS011;14766;51.380;13.762;2023-12-29T03:27:07;0.95;;;0.55;;
27265;SDS011;14766;51.380;13.762;2023-12-29T03:29:35;0.60;;;0.60;;
27265;SDS011;14766;51.380;13.762;2023-12-29T03:32:03;0.85;;;0.60;;
27265;SDS011;14766;51.380;13.762;2023-12-29T03:34:31;1.15;;;0.90;;
27265;SDS011;14766;51.380;13.762;2023-12-29T03:36:58;0.82;;;0.70;;
27265;SDS011;14766;51.380;13.762;2023-12-29T03:39:25;1.27;;;0.77;;
27265;SDS011;14766;51.380;13.762;2023-12-29T03:41:53;0.82;;;0.70;;
27265;SDS011;14766;51.380;13.762;2023-12-29T03:44:22;1.55;;;0.95;;
27265;SDS011;14766;51.380;13.762;2023-12-29T03:46:49;0.82;;;0.75;;
27265;SDS011;14766;51.380;13.762;2023-12-29T03:49:18;0.88;;;0.77;;
27265;SDS011;14766;51.380;13.762;2023-12-29T03:51:46;1.02;;;0.75;;
27265;SDS011;14766;51.380;13.762;2023-12-29T03:54:14;0.70;;;0.65;;
27265;SDS011;14766;51.380;13.762;2023-12-29T03:56:41;0.80;;;0.77;;
27265;SDS011;14766;51.380;13.762;2023-12-29T03:59:08;1.65;;;0.80;;
27265;SDS011;14766;51.380;13.762;2023-12-29T04:01:35;0.70;;;0.70;;
27265;SDS011;14766;51.380;13.762;2023-12-29T04:04:03;0.80;;;0.68;;
27265;SDS011;14766;51.380;13.762;2023-12-29T04:06:30;1.67;;;0.80;;
27265;SDS011;14766;51.380;13.762;2023-12-29T04:08:57;0.95;;;0.60;;
27265;SDS011;14766;51.380;13.762;2023-12-29T04:11:24;1.15;;;0.70;;
27265;SDS011;14766;51.380;13.762;2023-12-29T04:13:52;0.57;;;0.50;;
27265;SDS011;14766;51.380;13.762;2023-12-29T04:16:21;0.73;;;0.50;;
27265;SDS011;14766;51.380;13.762;2023-12-29T04:18:48;0.60;;;0.55;;
27265;SDS011;14766;51.380;13.762;2023-12-29T04:21:15;0.70;;;0.60;;
27265;SDS011;14766;51.380;13.762;2023-12-29T04:23:42;0.43;;;0.43;;
27265;SDS011;14766;51.380;13.762;2023-12-29T04:26:09;0.95;;;0.60;;
27265;SDS011;14766;51.380;13.762;2023-12-29T04:28:37;0.70;;;0.70;;
27265;SDS011;14766;51.380;13.762;2023-12-29T04:31:04;0.90;;;0.85;;
27265;SDS011;14766;51.380;13.762;2023-12-29T04:33:31;0.68;;;0.50;;
27265;SDS011;14766;51.380;13.762;2023-12-29T04:35:58;0.68;;;0.50;;
27265;SDS011;14766;51.380;13.762;2023-12-29T04:38:25;0.88;;;0.68;;
27265;SDS011;14766;51.380;13.762;2023-12-29T04:40:54;0.93;;;0.70;;
27265;SDS011;14766;51.380;13.762;2023-12-29T04:43:21;0.80;;;0.60;;
27265;SDS011;14766;51.380;13.762;2023-12-29T04:45:48;0.60;;;0.60;;
27265;SDS011;14766;51.380;13.762;2023-12-29T04:48:15;1.02;;;0.75;;
27265;SDS011;14766;51.380;13.762;2023-12-29T04:50:42;0.70;;;0.70;;
27265;SDS011;14766;51.380;13.762;2023-12-29T04:53:09;1.10;;;0.80;;
27265;SDS011;14766;51.380;13.762;2023-12-29T04:55:36;0.60;;;0.60;;
27265;SDS011;14766;51.380;13.762;2023-12-29T04:58:03;1.25;;;0.63;;
27265;SDS011;14766;51.380;13.762;2023-12-29T05:00:30;0.52;;;0.45;;
27265;SDS011;14766;51.380;13.762;2023-12-29T05:02:58;0.88;;;0.70;;
27265;SDS011;14766;51.380;13.762;2023-12-29T05:05:25;1.17;;;0.77;;
27265;SDS011;14766;51.380;13.762;2023-12-29T05:07:52;1.45;;;1.05;;
27265;SDS011;14766;51.380;13.762;2023-12-29T05:10:19;0.80;;;0.80;;
27265;SDS011;14766;51.380;13.762;2023-12-29T05:12:46;0.68;;;0.68;;
27265;SDS011;14766;51.380;13.762;2023-12-29T05:15:14;1.35;;;0.90;;
27265;SDS011;14766;51.380;13.762;2023-12-29T05:17:41;1.27;;;0.90;;
27265;SDS011;14766;51.380;13.762;2023-12-29T05:20:08;0.95;;;0.80;;
27265;SDS011;14766;51.380;13.762;2023-12-29T05:22:36;0.80;;;0.60;;
27265;SDS011;14766;51.380;13.762;2023-12-29T05:25:03;1.83;;;1.10;;
27265;SDS011;14766;51.380;13.762;2023-12-29T05:27:30;1.65;;;0.90;;
27265;SDS011;14766;51.380;13.762;2023-12-29T05:30:00;1.83;;;1.33;;
27265;SDS011;14766;51.380;13.762;2023-12-29T05:32:27;1.55;;;1.30;;
27265;SDS011;14766;51.380;13.762;2023-12-29T05:34:54;1.58;;;1.08;;
27265;SDS011;14766;51.380;13.762;2023-12-29T05:37:21;2.08;;;1.10;;
27265;SDS011;14766;51.380;13.762;2023-12-29T05:39:49;1.25;;;0.90;;
27265;SDS011;14766;51.380;13.762;2023-12-29T05:42:16;2.03;;;0.90;;
27265;SDS011;14766;51.380;13.762;2023-12-29T05:44:43;1.85;;;1.25;;
27265;SDS011;14766;51.380;13.762;2023-12-29T05:47:11;1.65;;;1.00;;
27265;SDS011;14766;51.380;13.762;2023-12-29T05:49:38;1.13;;;0.88;;
27265;SDS011;14766;51.380;13.762;2023-12-29T05:52:06;1.52;;;0.93;;
27265;SDS011;14766;51.380;13.762;2023-12-29T05:54:34;1.55;;;0.90;;
27265;SDS011;14766;51.380;13.762;2023-12-29T05:57:01;1.08;;;0.98;;
27265;SDS011;14766;51.380;13.762;2023-12-29T05:59:28;1.88;;;1.00;;
27265;SDS011;14766;51.380;13.762;2023-12-29T06:01:55;2.72;;;1.10;;
27265;SDS011;14766;51.380;13.762;2023-12-29T06:04:23;2.22;;;1.10;;
27265;SDS011;14766;51.380;13.762;2023-12-29T06:06:50;2.10;;;1.52;;
27265;SDS011;14766;51.380;13.762;2023-12-29T06:09:17;1.67;;;1.58;;
27265;SDS011;14766;51.380;13.762;2023-12-29T06:11:44;4.78;;;1.50;;
27265;SDS011;14766;51.380;13.762;2023-12-29T06:14:12;2.05;;;1.33;;
27265;SDS011;14766;51.380;13.762;2023-12-29T06:16:39;2.83;;;1.30;;
27265;SDS011;14766;51.380;13.762;2023-12-29T06:19:06;1.88;;;1.15;;
27265;SDS011;14766;51.380;13.762;2023-12-29T06:21:34;1.38;;;1.15;;
27265;SDS011;14766;51.380;13.762;2023-12-29T06:24:08;1.48;;;1.15;;
27265;SDS011;14766;51.380;13.762;2023-12-29T06:26:35;1.13;;;1.02;;
27265;SDS011;14766;51.380;13.762;2023-12-29T06:29:02;1.73;;;1.20;;
27265;SDS011;14766;51.380;13.762;2023-12-29T06:31:29;1.90;;;1.10;;
27265;SDS011;14766;51.380;13.762;2023-12-29T06:33:56;1.00;;;0.90;;
27265;SDS011;14766;51.380;13.762;2023-12-29T06:36:26;4.50;;;1.60;;
27265;SDS011;14766;51.380;13.762;2023-12-29T06:38:53;2.15;;;1.50;;
27265;SDS011;14766;51.380;13.762;2023-12-29T06:41:21;2.22;;;1.20;;
27265;SDS011;14766;51.380;13.762;2023-12-29T06:43:48;1.50;;;1.10;;
27265;SDS011;14766;51.380;13.762;2023-12-29T06:46:15;1.67;;;1.27;;
27265;SDS011;14766;51.380;13.762;2023-12-29T06:48:43;2.15;;;1.20;;
27265;SDS011;14766;51.380;13.762;2023-12-29T06:51:15;2.05;;;1.40;;
27265;SDS011;14766;51.380;13.762;2023-12-29T06:53:45;1.60;;;1.33;;
27265;SDS011;14766;51.380;13.762;2023-12-29T06:56:13;2.70;;;1.40;;
27265;SDS011;14766;51.380;13.762;2023-12-29T06:58:41;1.95;;;1.30;;
27265;SDS011;14766;51.380;13.762;2023-12-29T07:01:08;1.60;;;1.23;;
27265;SDS011;14766;51.380;13.762;2023-12-29T07:03:36;1.77;;;1.20;;
27265;SDS011;14766;51.380;13.762;2023-12-29T07:06:04;1.52;;;1.10;;
27265;SDS011;14766;51.380;13.762;2023-12-29T07:08:31;1.67;;;1.02;;
27265;SDS011;14766;51.380;13.762;2023-12-29T07:10:58;1.40;;;1.20;;
27265;SDS011;14766;51.380;13.762;2023-12-29T07:13:25;2.08;;;1.35;;
27265;SDS011;14766;51.380;13.762;2023-12-29T07:15:52;1.70;;;1.40;;
27265;SDS011;14766;51.380;13.762;2023-12-29T07:18:19;1.88;;;1.30;;
27265;SDS011;14766;51.380;13.762;2023-12-29T07:20:46;1.83;;;1.40;;
27265;SDS011;14766;51.380;13.762;2023-12-29T07:23:14;3.13;;;1.40;;
27265;SDS011;14766;51.380;13.762;2023-12-29T07:25:41;1.73;;;1.20;;
27265;SDS011;14766;51.380;13.762;2023-12-29T07:28:09;2.40;;;1.13;;
27265;SDS011;14766;51.380;13.762;2023-12-29T07:30:36;1.77;;;1.23;;
27265;SDS011;14766;51.380;13.762;2023-12-29T07:33:03;2.17;;;1.98;;
27265;SDS011;14766;51.380;13.762;2023-12-29T07:35:31;2.58;;;1.67;;
27265;SDS011;14766;51.380;13.762;2023-12-29T07:37:58;1.85;;;1.58;;
27265;SDS011;14766;51.380;13.762;2023-12-29T07:40:26;1.40;;;1.30;;
27265;SDS011;14766;51.380;13.762;2023-12-29T07:42:53;4.05;;;1.52;;
27265;SDS011;14766;51.380;13.762;2023-12-29T07:45:20;2.08;;;1.48;;
27265;SDS011;14766;51.380;13.762;2023-12-29T07:47:47;1.60;;;1.20;;
27265;SDS011;14766;51.380;13.762;2023-12-29T07:50:15;2.47;;;1.50;;
27265;SDS011;14766;51.380;13.762;2023-12-29T07:52:42;2.55;;;1.95;;
27265;SDS011;14766;51.380;13.762;2023-12-29T07:55:10;2.47;;;1.50;;
27265;SDS011;14766;51.380;13.762;2023-12-29T07:57:38;1.42;;;1.20;;
27265;SDS011;14766;51.380;13.762;2023-12-29T08:00:05;2.70;;;1.30;;
27265;SDS011;14766;51.380;13.762;2023-12-29T08:02:39;1.88;;;1.20;;
27265;SDS011;14766;51.380;13.762;2023-12-29T08:05:06;1.65;;;1.25;;
27265;SDS011;14766;51.380;13.762;2023-12-29T08:07:38;2.17;;;1.20;;
27265;SDS011;14766;51.380;13.762;2023-12-29T08:10:05;1.25;;;1.05;;
27265;SDS011;14766;51.380;13.762;2023-12-29T08:12:33;1.70;;;1.38;;
27265;SDS011;14766;51.380;13.762;2023-12-29T08:15:01;1.85;;;1.38;;
27265;SDS011;14766;51.380;13.762;2023-12-29T08:17:29;2.05;;;1.30;;
27265;SDS011;14766;51.380;13.762;2023-12-29T08:19:57;2.75;;;1.88;;
27265;SDS011;14766;51.380;13.762;2023-12-29T08:22:27;2.92;;;1.77;;
27265;SDS011;14766;51.380;13.762;2023-12-29T08:24:56;2.13;;;1.40;;
27265;SDS011;14766;51.380;13.762;2023-12-29T08:27:24;1.60;;;1.33;;
27265;SDS011;14766;51.380;13.762;2023-12-29T08:29:55;2.58;;;1.58;;
27265;SDS011;14766;51.380;13.762;2023-12-29T08:32:22;1.92;;;1.50;;
27265;SDS011;14766;51.380;13.762;2023-12-29T08:34:49;2.13;;;1.80;;
27265;SDS011;14766;51.380;13.762;2023-12-29T08:37:16;1.83;;;1.30;;
27265;SDS011;14766;51.380;13.762;2023-12-29T08:39:47;2.45;;;1.20;;
27265;SDS011;14766;51.380;13.762;2023-12-29T08:42:15;3.95;;;1.52;;
27265;SDS011;14766;51.380;13.762;2023-12-29T08:44:43;4.18;;;1.42;;
27265;SDS011;14766;51.380;13.762;2023-12-29T08:47:12;1.48;;;1.38;;
27265;SDS011;14766;51.380;13.762;2023-12-29T08:49:40;2.42;;;1.20;;
27265;SDS011;14766;51.380;13.762;2023-12-29T08:52:08;2.47;;;1.52;;
27265;SDS011;14766;51.380;13.762;2023-12-29T08:54:38;2.00;;;1.45;;
27265;SDS011;14766;51.380;13.762;2023-12-29T08:57:05;1.95;;;1.30;;
27265;SDS011;14766;51.380;13.762;2023-12-29T08:59:35;2.63;;;1.40;;
27265;SDS011;14766;51.380;13.762;2023-12-29T09:02:04;3.92;;;1.23;;
27265;SDS011;14766;51.380;13.762;2023-12-29T09:04:32;2.08;;;1.25;;
27265;SDS011;14766;51.380;13.762;2023-12-29T09:07:00;1.90;;;1.38;;
27265;SDS011;14766;51.380;13.762;2023-12-29T09:09:27;3.65;;;1.27;;
27265;SDS011;14766;51.380;13.762;2023-12-29T09:11:54;1.63;;;1.20;;
27265;SDS011;14766;51.380;13.762;2023-12-29T09:14:21;2.00;;;1.38;;
27265;SDS011;14766;51.380;13.762;2023-12-29T09:16:49;2.70;;;1.42;;
27265;SDS011;14766;51.380;13.762;2023-12-29T09:19:18;3.45;;;1.45;;
27265;SDS011;14766;51.380;13.762;2023-12-29T09:22:01;2.53;;;1.77;;
27265;SDS011;14766;51.380;13.762;2023-12-29T09:24:30;2.90;;;1.48;;
27265;SDS011;14766;51.380;13.762;2023-12-29T09:26:57;2.17;;;1.23;;
27265;SDS011;14766;51.380;13.762;2023-12-29T09:29:24;4.03;;;1.50;;
27265;SDS011;14766;51.380;13.762;2023-12-29T09:31:51;2.97;;;1.50;;
27265;SDS011;14766;51.380;13.762;2023-12-29T09:34:18;2.78;;;1.60;;
27265;SDS011;14766;51.380;13.762;2023-12-29T09:36:46;3.28;;;1.25;;
27265;SDS011;14766;51.380;13.762;2023-12-29T09:39:13;1.40;;;1.17;;
27265;SDS011;14766;51.380;13.762;2023-12-29T09:41:42;2.50;;;1.40;;
27265;SDS011;14766;51.380;13.762;2023-12-29T09:44:15;2.05;;;1.58;;
27265;SDS011;14766;51.380;13.762;2023-12-29T09:46:42;8.35;;;2.55;;
27265;SDS011;14766;51.380;13.762;2023-12-29T09:49:11;5.75;;;3.13;;
27265;SDS011;14766;51.380;13.762;2023-12-29T09:51:40;2.28;;;1.75;;
27265;SDS011;14766;51.380;13.762;2023-12-29T09:54:08;3.13;;;1.90;;
27265;SDS011;14766;51.380;13.762;2023-12-29T09:56:39;3.25;;;1.63;;
27265;SDS011;14766;51.380;13.762;2023-12-29T09:59:10;3.03;;;1.38;;
27265;SDS011;14766;51.380;13.762;2023-12-29T10:01:39;2.15;;;1.48;;
27265;SDS011;14766;51.380;13.762;2023-12-29T10:04:09;2.72;;;1.50;;
27265;SDS011;14766;51.380;13.762;2023-12-29T10:06:36;5.93;;;3.40;;
27265;SDS011;14766;51.380;13.762;2023-12-29T10:09:08;12.32;;;6.38;;
27265;SDS011;14766;51.380;13.762;2023-12-29T10:11:38;7.13;;;2.80;;
27265;SDS011;14766;51.380;13.762;2023-12-29T10:14:31;3.30;;;1.63;;
27265;SDS011;14766;51.380;13.762;2023-12-29T10:17:06;5.90;;;2.75;;
27265;SDS011;14766;51.380;13.762;2023-12-29T10:20:05;1.98;;;1.30;;
27265;SDS011;14766;51.380;13.762;2023-12-29T10:25:48;2.38;;;1.70;;
27265;SDS011;14766;51.380;13.762;2023-12-29T10:28:16;2.42;;;1.38;;
27265;SDS011;14766;51.380;13.762;2023-12-29T10:30:44;2.95;;;1.30;;
27265;SDS011;14766;51.380;13.762;2023-12-29T10:33:13;6.28;;;3.90;;
27265;SDS011;14766;51.380;13.762;2023-12-29T10:38:30;1.60;;;1.30;;
27265;SDS011;14766;51.380;13.762;2023-12-29T10:41:18;2.60;;;1.27;;
27265;SDS011;14766;51.380;13.762;2023-12-29T10:43:47;3.08;;;1.60;;
27265;SDS011;14766;51.380;13.762;2023-12-29T10:46:18;2.30;;;1.33;;
27265;SDS011;14766;51.380;13.762;2023-12-29T10:48:46;3.35;;;1.85;;
27265;SDS011;14766;51.380;13.762;2023-12-29T10:51:13;3.10;;;1.58;;
27265;SDS011;14766;51.380;13.762;2023-12-29T10:53:44;2.65;;;1.83;;
27265;SDS011;14766;51.380;13.762;2023-12-29T10:56:23;3.00;;;1.60;;
27265;SDS011;14766;51.380;13.762;2023-12-29T10:58:57;2.15;;;1.67;;
27265;SDS011;14766;51.380;13.762;2023-12-29T11:01:35;2.20;;;1.63;;
27265;SDS011;14766;51.380;13.762;2023-12-29T11:04:06;3.10;;;1.67;;
27265;SDS011;14766;51.380;13.762;2023-12-29T11:06:39;2.50;;;1.83;;
27265;SDS011;14766;51.380;13.762;2023-12-29T11:09:09;2.33;;;2.13;;
27265;SDS011;14766;51.380;13.762;2023-12-29T11:11:38;3.63;;;2.08;;
27265;SDS011;14766;51.380;13.762;2023-12-29T11:14:05;4.25;;;2.13;;
27265;SDS011;14766;51.380;13.762;2023-12-29T11:16:35;2.65;;;1.90;;
27265;SDS011;14766;51.380;13.762;2023-12-29T11:19:02;2.90;;;1.70;;
27265;SDS011;14766;51.380;13.762;2023-12-29T11:21:30;4.22;;;2.30;;
27265;SDS011;14766;51.380;13.762;2023-12-29T11:23:58;3.08;;;2.20;;
27265;SDS011;14766;51.380;13.762;2023-12-29T11:26:25;4.47;;;2.40;;
27265;SDS011;14766;51.380;13.762;2023-12-29T11:28:55;3.25;;;1.67;;
27265;SDS011;14766;51.380;13.762;2023-12-29T11:31:23;1.63;;;1.30;;
27265;SDS011;14766;51.380;13.762;2023-12-29T11:33:57;2.40;;;1.30;;
27265;SDS011;14766;51.380;13.762;2023-12-29T11:36:33;2.45;;;1.27;;
27265;SDS011;14766;51.380;13.762;2023-12-29T11:39:14;1.73;;;1.20;;
27265;SDS011;14766;51.380;13.762;2023-12-29T11:41:59;3.65;;;2.05;;
27265;SDS011;14766;51.380;13.762;2023-12-29T11:44:33;4.75;;;1.90;;
27265;SDS011;14766;51.380;13.762;2023-12-29T11:47:00;5.68;;;2.92;;
27265;SDS011;14766;51.380;13.762;2023-12-29T11:50:12;3.47;;;2.20;;
27265;SDS011;14766;51.380;13.762;2023-12-29T11:52:36;4.32;;;3.00;;
27265;SDS011;14766;51.380;13.762;2023-12-29T11:55:09;2.80;;;1.65;;
27265;SDS011;14766;51.380;13.762;2023-12-29T11:57:44;2.08;;;1.15;;
27265;SDS011;14766;51.380;13.762;2023-12-29T12:00:14;1.85;;;1.42;;
27265;SDS011;14766;51.380;13.762;2023-12-29T12:02:44;1.98;;;1.45;;
27265;SDS011;14766;51.380;13.762;2023-12-29T12:05:31;3.70;;;1.40;;
27265;SDS011;14766;51.380;13.762;2023-12-29T12:08:12;1.58;;;1.10;;
27265;SDS011;14766;51.380;13.762;2023-12-29T12:13:56;1.70;;;1.33;;
27265;SDS011;14766;51.380;13.762;2023-12-29T12:19:15;11.88;;;6.22;;
27265;SDS011;14766;51.380;13.762;2023-12-29T12:21:45;4.90;;;2.20;;
27265;SDS011;14766;51.380;13.762;2023-12-29T12:24:18;3.83;;;1.92;;
27265;SDS011;14766;51.380;13.762;2023-12-29T12:26:46;1.90;;;1.45;;
27265;SDS011;14766;51.380;13.762;2023-12-29T12:29:13;2.83;;;1.60;;
27265;SDS011;14766;51.380;13.762;2023-12-29T12:31:57;1.95;;;1.45;;
27265;SDS011;14766;51.380;13.762;2023-12-29T12:34:24;2.28;;;1.40;;
27265;SDS011;14766;51.380;13.762;2023-12-29T12:36:53;5.25;;;2.72;;
27265;SDS011;14766;51.380;13.762;2023-12-29T12:39:24;9.77;;;6.75;;
27265;SDS011;14766;51.380;13.762;2023-12-29T12:42:04;10.52;;;5.95;;
27265;SDS011;14766;51.380;13.762;2023-12-29T12:44:31;8.65;;;4.88;;
27265;SDS011;14766;51.380;13.762;2023-12-29T12:46:59;5.32;;;3.67;;
27265;SDS011;14766;51.380;13.762;2023-12-29T12:49:33;7.50;;;4.20;;
27265;SDS011;14766;51.380;13.762;2023-12-29T12:52:00;3.38;;;2.10;;
27265;SDS011;14766;51.380;13.762;2023-12-29T12:54:27;5.25;;;2.55;;
27265;SDS011;14766;51.380;13.762;2023-12-29T12:56:55;2.72;;;1.55;;
27265;SDS011;14766;51.380;13.762;2023-12-29T12:59:22;2.90;;;1.95;;
27265;SDS011;14766;51.380;13.762;2023-12-29T13:01:49;2.85;;;1.63;;
27265;SDS011;14766;51.380;13.762;2023-12-29T13:04:17;3.60;;;1.80;;
27265;SDS011;14766;51.380;13.762;2023-12-29T13:06:44;2.63;;;1.48;;
27265;SDS011;14766;51.380;13.762;2023-12-29T13:09:15;2.53;;;1.70;;
27265;SDS011;14766;51.380;13.762;2023-12-29T13:11:46;2.53;;;1.55;;
27265;SDS011;14766;51.380;13.762;2023-12-29T13:14:22;3.40;;;2.13;;
27265;SDS011;14766;51.380;13.762;2023-12-29T13:16:52;3.58;;;2.53;;
27265;SDS011;14766;51.380;13.762;2023-12-29T13:19:20;11.13;;;6.65;;
27265;SDS011;14766;51.380;13.762;2023-12-29T13:21:50;6.28;;;4.15;;
27265;SDS011;14766;51.380;13.762;2023-12-29T13:24:23;5.18;;;3.40;;
27265;SDS011;14766;51.380;13.762;2023-12-29T13:26:57;5.40;;;3.00;;
27265;SDS011;14766;51.380;13.762;2023-12-29T13:29:28;2.13;;;1.58;;
27265;SDS011;14766;51.380;13.762;2023-12-29T13:32:12;3.80;;;1.95;;
27265;SDS011;14766;51.380;13.762;2023-12-29T13:42:26;3.80;;;2.15;;
27265;SDS011;14766;51.380;13.762;2023-12-29T13:44:58;2.28;;;1.67;;
27265;SDS011;14766;51.380;13.762;2023-12-29T13:47:27;1.73;;;1.30;;
27265;SDS011;14766;51.380;13.762;2023-12-29T13:49:54;2.75;;;1.63;;
27265;SDS011;14766;51.380;13.762;2023-12-29T13:52:22;2.00;;;1.33;;
27265;SDS011;14766;51.380;13.762;2023-12-29T13:54:49;2.42;;;1.40;;
27265;SDS011;14766;51.380;13.762;2023-12-29T13:57:16;2.05;;;1.60;;
27265;SDS011;14766;51.380;13.762;2023-12-29T13:59:44;3.05;;;1.60;;
27265;SDS011;14766;51.380;13.762;2023-12-29T14:07:52;3.08;;;1.15;;
27265;SDS011;14766;51.380;13.762;2023-12-29T14:10:32;2.03;;;1.70;;
27265;SDS011;14766;51.380;13.762;2023-12-29T14:13:10;2.30;;;1.73;;
27265;SDS011;14766;51.380;13.762;2023-12-29T14:15:42;3.80;;;1.58;;
27265;SDS011;14766;51.380;13.762;2023-12-29T14:20:41;4.75;;;2.65;;
27265;SDS011;14766;51.380;13.762;2023-12-29T14:23:08;2.65;;;1.80;;
27265;SDS011;14766;51.380;13.762;2023-12-29T14:25:36;2.05;;;1.30;;
27265;SDS011;14766;51.380;13.762;2023-12-29T14:28:05;1.67;;;1.35;;
27265;SDS011;14766;51.380;13.762;2023-12-29T14:30:41;1.88;;;1.00;;
27265;SDS011;14766;51.380;13.762;2023-12-29T14:33:09;2.22;;;1.27;;
27265;SDS011;14766;51.380;13.762;2023-12-29T14:35:37;3.30;;;1.10;;
27265;SDS011;14766;51.380;13.762;2023-12-29T14:38:04;5.70;;;3.40;;
27265;SDS011;14766;51.380;13.762;2023-12-29T14:40:32;4.97;;;3.17;;
27265;SDS011;14766;51.380;13.762;2023-12-29T14:43:02;10.23;;;6.63;;
27265;SDS011;14766;51.380;13.762;2023-12-29T14:45:29;7.90;;;5.05;;
27265;SDS011;14766;51.380;13.762;2023-12-29T14:47:58;5.00;;;3.50;;
27265;SDS011;14766;51.380;13.762;2023-12-29T14:50:27;3.92;;;2.45;;
27265;SDS011;14766;51.380;13.762;2023-12-29T14:52:54;5.32;;;1.50;;
27265;SDS011;14766;51.380;13.762;2023-12-29T14:55:21;3.00;;;1.98;;
27265;SDS011;14766;51.380;13.762;2023-12-29T14:57:48;2.45;;;1.77;;
27265;SDS011;14766;51.380;13.762;2023-12-29T15:00:15;1.80;;;1.15;;
27265;SDS011;14766;51.380;13.762;2023-12-29T15:02:43;2.50;;;1.40;;
27265;SDS011;14766;51.380;13.762;2023-12-29T15:05:10;2.03;;;1.17;;
27265;SDS011;14766;51.380;13.762;2023-12-29T15:07:37;2.60;;;0.85;;
27265;SDS011;14766;51.380;13.762;2023-12-29T15:10:04;2.50;;;1.10;;
27265;SDS011;14766;51.380;13.762;2023-12-29T15:12:32;1.45;;;1.00;;
27265;SDS011;14766;51.380;13.762;2023-12-29T15:15:01;1.33;;;0.80;;
27265;SDS011;14766;51.380;13.762;2023-12-29T15:17:29;2.33;;;1.23;;
27265;SDS011;14766;51.380;13.762;2023-12-29T15:19:57;0.88;;;0.80;;
27265;SDS011;14766;51.380;13.762;2023-12-29T15:22:24;2.17;;;1.00;;